»·PEaware :: AAL427 KSAN-KPHX

AAL427 :: KSAN-KPHX

FLIGHT INFORMATION

Flight Status: Arrived
Operator:
American Airlines
More flights by this operator :: More flights under this callsign
Pilot: Chris S. (2433)
Aircraft: AIRBUS A320
(A320)
More flights by this aircraft type
Origin: KSAN San Diego Intl-Lindbergh
United States
Destination: KPHX Phoenix Sky Harbor Intl
United States
More flights between these airports :: More routes between these airports
Route: ZZOOO2 IPL J18 BZA HOGGZ HYDRR1
File this flight plan on PilotEdge
Remarks:
Altitude:
(Current/Filed)
33,000ft
Speed:
(Current/Filed)
450kts
Departed: 23-Apr-18 03:44 PM
Arrived: 23-Apr-18 04:36 PM
Distance/Time
Traveled:
264nm/0:52
Distance/Time
To Go:
Arrived

Flight Plot

Page will automatically refresh every two minutes.

Flight plan parsing failed; only flown route is shown


Map Options




Map Legend


Flown Route
Filed Route
Departure Airport
Arrival Airport
Navaid (VOR, NDB)
Fix

Horizontal Profiles

Position Reports

Time Latitude Longitude Heading Altitude Ground
Speed
23-Apr-18 15:18 32.734281 -117.200692 209 19ft 0kts
23-Apr-18 15:19 32.734281 -117.200692 209 19ft 0kts
23-Apr-18 15:20 32.734281 -117.200692 209 19ft 0kts
23-Apr-18 15:21 32.734281 -117.200692 209 19ft 0kts
23-Apr-18 15:22 32.734281 -117.200692 209 19ft 0kts
23-Apr-18 15:23 32.734281 -117.200692 209 19ft 0kts
23-Apr-18 15:24 32.734281 -117.200692 209 19ft 0kts
23-Apr-18 15:25 32.734281 -117.200692 209 19ft 0kts
23-Apr-18 15:26 32.734281 -117.200692 209 19ft 0kts
23-Apr-18 15:27 32.734281 -117.200692 209 19ft 0kts
23-Apr-18 15:28 32.734281 -117.200692 209 19ft 0kts
23-Apr-18 15:29 32.734281 -117.200692 209 19ft 0kts
23-Apr-18 15:30 32.734281 -117.200692 209 19ft 0kts
23-Apr-18 15:31 32.734467 -117.200652 163 19ft 2kts
23-Apr-18 15:32 32.734684 -117.201043 106 19ft 0kts
23-Apr-18 15:33 32.734684 -117.201043 106 19ft 0kts
23-Apr-18 15:34 32.734684 -117.201043 106 19ft 0kts
23-Apr-18 15:35 32.734684 -117.201043 106 19ft 0kts
23-Apr-18 15:36 32.734684 -117.201043 106 19ft 0kts
23-Apr-18 15:37 32.734684 -117.201042 106 19ft 0kts
23-Apr-18 15:38 32.734392 -117.197328 105 19ft 20kts
23-Apr-18 15:39 32.732708 -117.190417 106 21ft 22kts
23-Apr-18 15:40 32.731035 -117.183500 105 19ft 21kts
23-Apr-18 15:41 32.729450 -117.176951 90 24ft 9kts
23-Apr-18 15:42 32.729554 -117.176502 68 25ft 7kts
23-Apr-18 15:43 32.731322 -117.180651 285 21ft 100kts
23-Apr-18 15:44 32.745035 -117.234002 286 2756ft 196kts
23-Apr-18 15:45 32.752249 -117.307050 241 5714ft 266kts
23-Apr-18 15:46 32.685729 -117.315725 136 9352ft 292kts
23-Apr-18 15:47 32.636049 -117.248715 117 11554ft 340kts
23-Apr-18 15:48 32.621079 -117.131862 96 14052ft 371kts
23-Apr-18 15:49 32.611702 -117.025598 96 16209ft 387kts
23-Apr-18 15:50 32.605822 -116.895630 78 18413ft 407kts
23-Apr-18 15:51 32.631111 -116.762621 82 20424ft 423kts
23-Apr-18 15:52 32.645077 -116.621370 84 22276ft 437kts
23-Apr-18 15:53 32.659190 -116.475896 84 23941ft 451kts
23-Apr-18 15:54 32.672916 -116.332554 84 25371ft 464kts
23-Apr-18 15:55 32.687463 -116.178676 84 26684ft 478kts
23-Apr-18 15:56 32.702238 -116.020308 84 27947ft 489kts
23-Apr-18 15:57 32.717167 -115.858965 84 29107ft 499kts
23-Apr-18 15:58 32.732137 -115.694857 84 30415ft 502kts
23-Apr-18 15:59 32.746874 -115.530827 85 31823ft 501kts
23-Apr-18 16:00 32.752583 -115.366009 86 32950ft 500kts
23-Apr-18 16:01 32.757117 -115.202318 85 32980ft 499kts
23-Apr-18 16:02 32.761564 -115.037117 85 32989ft 504kts
23-Apr-18 16:03 32.764978 -114.870709 83 32984ft 510kts
23-Apr-18 16:04 32.765702 -114.701595 88 33042ft 516kts
23-Apr-18 16:05 32.768042 -114.531513 91 32976ft 512kts
23-Apr-18 16:06 32.770485 -114.364395 89 32068ft 506kts
23-Apr-18 16:07 32.772577 -114.198223 90 31121ft 506kts
23-Apr-18 16:08 32.778125 -114.031824 81 30173ft 502kts
23-Apr-18 16:09 32.795291 -113.869307 81 28699ft 487kts
23-Apr-18 16:10 32.814992 -113.712796 70 27862ft 462kts
23-Apr-18 16:11 32.884243 -113.597370 43 26636ft 420kts
23-Apr-18 16:12 32.960426 -113.495474 43 24571ft 405kts
23-Apr-18 16:13 33.033509 -113.396853 43 22555ft 391kts
23-Apr-18 16:14 33.103168 -113.302402 45 21291ft 384kts
23-Apr-18 16:15 33.173440 -113.207121 45 20290ft 383kts
23-Apr-18 16:16 33.243818 -113.111543 48 19291ft 382kts
23-Apr-18 16:17 33.276219 -113.001604 89 18385ft 360kts
23-Apr-18 16:18 33.279132 -112.882597 87 17387ft 357kts
23-Apr-18 16:19 33.285579 -112.769569 81 16410ft 333kts
23-Apr-18 16:20 33.295807 -112.660574 81 15127ft 327kts
23-Apr-18 16:21 33.305728 -112.553943 81 13870ft 319kts
23-Apr-18 16:22 33.315324 -112.449941 82 12650ft 312kts
23-Apr-18 16:23 33.324592 -112.348593 82 11429ft 304kts
23-Apr-18 16:24 33.332628 -112.260650 82 10214ft 294kts
23-Apr-18 16:25 33.341264 -112.166506 82 9323ft 270kts
23-Apr-18 16:26 33.347933 -112.083086 90 8859ft 241kts
23-Apr-18 16:27 33.346762 -112.001066 89 7642ft 245kts
23-Apr-18 16:28 33.345882 -111.919333 88 6562ft 246kts
23-Apr-18 16:29 33.354373 -111.844769 40 6120ft 207kts
23-Apr-18 16:30 33.403266 -111.837246 357 5176ft 167kts
23-Apr-18 16:31 33.430709 -111.865170 262 3936ft 144kts
23-Apr-18 16:32 33.428416 -111.912418 268 2677ft 143kts
23-Apr-18 16:33 33.428762 -111.959352 267 1831ft 136kts
23-Apr-18 16:34 33.428870 -112.004218 268 1124ft 128kts
23-Apr-18 16:35 33.428984 -112.016429 305 1121ft 7kts
23-Apr-18 16:36 33.431501 -112.015686 0 1123ft 10kts
23-Apr-18 16:37 33.432889 -112.013362 90 1125ft 10kts
23-Apr-18 16:38 33.434027 -112.012366 346 1127ft 6kts
23-Apr-18 16:39 33.434388 -112.013320 289 1125ft 0kts
23-Apr-18 16:40 33.434388 -112.013320 289 1125ft 0kts

Navigation Log

Ident Type
Flight plan parsing failed, navigation log unavailable